Terminal Aerodrome Forecast
Issued by NWS St Louis, MO

Home | Current Version | Previous Version | Text Only | Print | Product List | Glossary On
Versions: 1 2 3 4 5 6 7 8 9 10 11 12 13 14 15 16 17 18 19 20
000
FTUS43 KLSX 131100
TAFCOU
TAF
KCOU 131120Z 1312/1412 16013G22KT P6SM VCTS BKN035CB
     FM131300 18014G24KT P6SM SCT030 OVC120
     FM131800 18017G27KT 5SM -SHRA OVC030
     FM140300 23015G25KT 4SM -SHRA VCTS OVC015CB
     FM140700 33015G25KT P6SM OVC012=

USA.gov is the U.S. government's official web portal to all federal, state and local government web resources and services.